Lentvaris, Lithuania
Current Conditions -  °F | °C
As of 9:20 AM on Monday 26 Jan 2015 (Local Time) from EYVI Reporting Station
Freezing Drizzle Freezing Drizzle  
Wind Chill: 25°   Ceiling: 200
Heat Index: 30°   Visibility: 0.18mi
Dew Point: 30°   Wind: 5mph
Humidity: 100%   Direction: 270°W
Pressure: 30.09"   Gusts: NA
Location:  54.65°N, 25.05°E
Report Text: EYVI 260620Z 27004KT 250V310 0300 R20/0650D -FZDZ FZFG VV002 M01/M01 Q1019 R20/5/0295 NOSIG
Loading
Personal Weather Stations






























Interactive Weather Map New forecast layout! Learn more

10-Day Weather Forecast

Advertisements
Track Severe Weather on mobile